Las Vegas, Nevada (DRI) Weather observations

Data are for observation ending at time listed.
 Day   Time    Ave.   Ave.  Ave.  Vector   Max.   Stn.    Total    Solar   Ave.  
  of    of     Air    Rel.  Wind   Wind    Wind   Baro.  Precip.   Rad.    Soil  
Year   Day     Temp.  Hum.  Speed  Dir.    Gust   Pres.                    Temp. 
2026   (PST)    F      %     mph   deg.    mph     mb.     in.     W/m2     F   
------------------------------------------------------------------------------
 242    2:40   89.7    26    2.9   190      8.1   938.0    0.00       0    96.5
 242    2:50   89.6    26    2.3   166      5.8   937.9    0.00       0    96.4
 242    3:00   89.3    26    2.0   170      7.2   937.9    0.00       0    96.3
 242    3:10   89.4    25    2.9   214      7.7   938.0    0.00       0    96.2
 242    3:20   89.5    24    4.5   204     11.6   938.0    0.00       0    96.1
 242    3:30   89.5    24    2.1   337      7.5   938.1    0.00       0    96.0
 242    3:40   89.4    24    1.8   195      6.2   938.3    0.00       0    95.9
 242    3:50   89.1    25    1.5   192      3.9   938.5    0.00       0    95.8
 242    4:00   88.8    26    3.4   179      6.5   938.5    0.00       0    95.8
 242    4:10   88.5    26    4.7   173      9.6   938.6    0.00       0    95.7
 242    4:20   88.6    26    5.0   178     11.5   938.6    0.00       0    95.5
 242    4:30   88.6    26    4.9   173      7.8   938.8    0.00       0    95.4
 242    4:40   88.5    25    4.3   172     10.4   938.9    0.00       0    95.3
 242    4:50   88.5    24    4.3   172      8.1   939.0    0.00       0    95.3
 242    5:00   87.9    27    0.9   190      3.1   939.1    0.00       0    95.2
 242    5:10   87.3    27    2.8   176      7.4   939.3    0.00       1    95.1
 242    5:20   87.8    25    5.1   178     10.5   939.4    0.00       4    95.0
 242    5:30   87.8    24    5.2   182     11.2   939.5    0.00      10    94.9
 242    5:40   87.8    24    4.8   180     10.7   939.6    0.00      15    94.8
 242    5:50   87.6    24    5.6   177      9.7   939.7    0.00      21    94.7
 242    6:00   87.2    25    4.6   178      9.1   940.0    0.00      25    94.6
 242    6:10   87.0    25    6.0   172     10.3   940.0    0.00      29    94.5
 242    6:20   87.2    25    6.2   178     11.8   940.0    0.00      43    94.4
 242    6:30   87.6    24    6.0   178     12.4   940.1    0.00      52    94.3
 242    6:40   88.0    24    6.0   178     11.3   940.1    0.00      66    94.2
 242    6:50   88.4    23    6.5   176     12.9   940.1    0.00      64    94.1
 242    7:00   88.4    22    6.9   173     13.4   940.1    0.00      59    94.0
 242    7:10   88.4    22    6.7   176     12.2   940.1    0.00      87    94.0
 242    7:20   88.4    22    5.7   179     11.2   940.2    0.00     100    94.0
 242    7:30   88.5    22    5.7   177     11.0   940.2    0.00     101    93.9
 242    7:40   88.6    22    5.6   178     10.1   940.3    0.00      89    93.9
 242    7:50   88.4    22    4.6   176      9.2   940.2    0.00      68    93.9
 242    8:00   88.4    21    6.0   183     12.5   940.1    0.00      68    93.9
 242    8:10   88.6    21    4.7   184      8.7   940.2    0.00     112    93.9
 242    8:20   88.9    21    6.4   176     14.4   940.2    0.00     124    93.8
 242    8:30   89.4    21    4.8   183      9.5   940.3    0.00     153    93.8
 242    8:40   89.9    21    4.8   174      9.1   940.4    0.00     180    93.8
 242    8:50   90.5    21    4.6   181      8.6   940.4    0.00     189    93.8
 242    9:00   91.7    20    4.1   177      9.6   940.4    0.00     203    93.8
 242    9:10   92.6    20    3.0   182      8.2   940.4    0.00     339    93.9
 242    9:20   93.8    19    6.7   172     14.2   940.3    0.00     678    94.0
 242    9:30   93.9    18    7.5   174     14.5   940.4    0.00     587    94.1
 242    9:40   93.9    18    6.9   178     15.4   940.5    0.00     532    94.2
 242    9:50   94.2    18    6.4   180     11.7   940.5    0.00     736    94.4
 242   10:00   95.4    18    6.7   180     11.5   940.4    0.00     845    94.7
 242   10:10   96.0    17    7.0   182     15.2   940.4    0.00     916    95.1
 242   10:20   96.7    17    7.4   183     15.3   940.3    0.00     985    95.5
 242   10:30   98.0    16    7.4   187     14.5   940.2    0.00     907    96.1
 242   10:40   96.4    17    8.1   182     17.7   940.1    0.00     296    96.8
 242   10:50   95.0    17    8.8   176     19.6   940.1    0.00     267    97.5
 242   11:00   94.9    18    7.9   176     17.1   940.1    0.00     383    98.0
 242   11:10   95.3    18    6.6   181     12.4   940.2    0.00     365    98.4
 242   11:20   95.1    17    8.7   178     15.2   940.2    0.00     337    98.6
 242   11:30   95.0    18    6.3   187     11.3   940.2    0.00     328    98.7
 242   11:40   94.7    18    7.2   192     13.9   940.1    0.00     319    98.8
 242   11:50   94.5    18    7.8   181     13.8   940.1    0.00     281    98.8
 242   12:00   94.5    18    6.9   188     13.4   940.0    0.00     330    98.9
 242   12:10   94.9    18    6.6   200     13.1   939.9    0.00     452    98.9
 242   12:20   96.4    18    6.3   191     13.6   939.8    0.00     754    98.9
 242   12:30   97.2    17    6.2   207     12.9   939.6    0.00     694    99.0
 242   12:40   97.8    17    6.8   210     21.5   939.6    0.00     822    99.2
 242   12:50   98.1    17    6.9   190     16.2   939.4    0.00     669    99.5
 242   13:00   98.7    17    5.5   200     12.6   939.3    0.00     738    99.9
 242   13:10   99.5    17    5.4   186     13.1   939.1    0.00     893    100.4
 242   13:20   99.6    16    5.6   206     15.1   938.9    0.00     776    100.9
 242   13:30   99.6    17    6.4   196     15.4   938.7    0.00     690    101.5
 242   13:40   99.6    17    6.1   197     18.2   938.6    0.00     634    102.1
 242   13:50   99.4    17    5.9   191     12.7   938.4    0.00     671    102.6
 242   14:00   99.3    17    6.0   208     13.5   938.4    0.00     540    103.0
 242   14:10   99.7    17    5.1   202     12.5   938.2    0.00     635    103.4
 242   14:20   99.9    17    5.2   186     12.5   938.2    0.00     512    103.8
 242   14:30  100.3    17    5.7   203     14.2   938.1    0.00     633    104.0
 242   14:40   99.6    17    6.7   191     14.5   938.1    0.00     598    104.2
 242   14:50   99.6    17    5.3   208     15.3   937.9    0.00     537    104.3
 242   15:00  100.1    16    6.1   201     14.0   937.9    0.00     552    104.4
 242   15:10   99.8    16    6.1   188     17.1   937.7    0.00     550    104.4
 242   15:20  100.4    16    5.8   192     14.2   937.7    0.00     502    104.5
 242   15:30   99.9    16    5.6   195     14.8   937.7    0.00     481    104.5
 242   15:40  100.1    16    5.8   190     14.2   937.6    0.00     514    104.4
 242   15:50  100.1    16    4.3   205     11.5   937.6    0.00     334    104.3
 242   16:00  100.6    15    2.3   251     10.4   937.5    0.00     297    104.2
 242   16:10  100.0    16    3.3   206     10.2   937.4    0.00     255    104.2
 242   16:20  100.1    16    2.7   187      8.2   937.3    0.00     346    104.1
 242   16:30  100.7    15    3.4   201      8.3   937.3    0.00     330    104.0
 242   16:40   99.8    15    3.8   231      8.4   937.3    0.00     240    103.9
 242   16:50   99.5    14    5.4   204     13.0   937.2    0.00     222    103.7
 242   17:00   99.1    14    6.0   186     15.3   937.1    0.00     177    103.5
 242   17:10   98.5    14    7.3   186     12.1   937.0    0.00     163    103.2
 242   17:20   98.3    14    6.3   198     15.6   937.0    0.00     138    103.0
 242   17:30   98.2    14    5.2   209     10.8   937.0    0.00      79    102.8
 242   17:40   97.3    15    5.2   195     10.2   937.0    0.00      39    102.6
 242   17:50   96.9    15    4.6   196     11.3   937.0    0.00      25    102.4
 242   18:00   96.6    15    4.7   188      9.5   937.1    0.00      18    102.1
 242   18:10   96.4    16    3.8   214      8.6   937.2    0.00       7    101.9
 242   18:20   96.0    16    3.2   214      8.3   937.2    0.00       3    101.7
 242   18:30   95.8    16    3.4   238      7.3   937.2    0.00       1    101.4
 242   18:40   95.5    16    2.8   222      6.9   937.2    0.00       0    101.2
 242   18:50   95.2    16    3.1   220      7.4   937.4    0.00       0    101.0
 242   19:00   94.7    17    1.8   205      3.1   937.4    0.00       0    100.7
 242   19:10   94.4    17    2.0   195      4.8   937.6    0.00       0    100.5
 242   19:20   94.1    18    1.8   197      4.3   937.7    0.00       0    100.3
 242   19:30   94.2    17    1.6   205      2.9   938.0    0.00       0    100.1
 242   19:40   93.8    18    1.2   196      3.4   938.1    0.00       0    99.9
 242   19:50   94.1    18    0.9   276      4.3   938.3    0.00       0    99.7
 242   20:00   93.7    18    0.8   188      2.0   938.3    0.00       0    99.5
 242   20:10   92.8    20    0.7   160      1.6   938.5    0.00       0    99.3
 242   20:20   91.8    20    0.0     0      0.0   938.5    0.00       0    99.1
 242   20:30   91.1    21    0.0     0      0.0   938.5    0.00       0    98.9
 242   20:40   90.6    21    0.0   268      0.8   938.5    0.00       0    98.7
 242   20:50   91.0    22    0.4   240      1.8   938.5    0.00       0    98.5
 242   21:00   91.2    23    0.8   103      2.6   938.5    0.00       0    98.4
 242   21:10   90.3    24    0.2   222      1.2   938.6    0.00       0    98.2
 242   21:20   89.6    23    0.5   224      2.5   938.6    0.00       0    98.0
 242   21:30   88.6    23    0.2   234      4.6   938.6    0.00       0    97.8
 242   21:40   91.0    20    2.6   180      5.3   938.5    0.00       0    97.6
 242   21:50   90.5    22    1.0   168      2.9   938.6    0.00       0    97.5
 242   22:00   89.5    23    0.9   183      2.6   938.6    0.00       0    97.3
 242   22:10   89.4    22    0.8   198      1.8   938.5    0.00       0    97.1
 242   22:20   89.0    22    1.0   193      3.1   938.5    0.00       0    96.9
 242   22:30   89.6    21    2.1   178      3.7   938.5    0.00       0    96.8
 242   22:40   90.1    21    2.2   183      5.3   938.5    0.00       0    96.6
 242   22:50   89.7    22    0.5   180      2.2   938.4    0.00       0    96.5
 242   23:00   89.1    23    0.4   186      1.2   938.4    0.00       0    96.3
 242   23:10   88.9    25    1.7   164      2.8   938.5    0.00       0    96.2
 242   23:20   88.6    25    1.2   109      3.1   938.7    0.00       0    96.0
 242   23:30   87.9    25    1.9   196      4.0   938.7    0.00       0    95.9
 242   23:40   88.1    25    0.5   160      2.0   938.6    0.00       0    95.8
 242   23:50   87.9    25    0.5    46      1.6   938.8    0.00       0    95.7
 243    0:00   86.8    28    0.6   167      1.9   938.8    0.00       0    95.5
 243    0:10   85.7    29    0.7   175      2.3   938.9    0.00       0    95.4
 243    0:20   85.8    27    1.6   166      3.1   938.8    0.00       0    95.3
 243    0:30   86.1    25    1.1   166      2.0   938.7    0.00       0    95.2
 243    0:40   86.1    24    1.3   157      3.1   938.8    0.00       0    95.1
 243    0:50   86.2    24    1.6   160      3.5   938.8    0.00       0    94.9
 243    1:00   85.9    24    3.2   182      6.0   938.8    0.00       0    94.7
 243    1:10   86.4    23    3.3   184      6.6   938.7    0.00       0    94.6
 243    1:20   86.7    23    2.3   188      6.1   938.8    0.00       0    94.5
 243    1:30   86.8    24    2.7   176      7.6   938.8    0.00       0    94.3
 243    1:40   86.7    24    1.9   168      4.8   938.7    0.00       0    94.2
 243    1:50   86.2    24    1.6   168      3.5   938.9    0.00       0    94.1
 243    2:00   85.7    25    1.9   174      4.6   938.8    0.00       0    94.0
 243    2:10   85.5    26    0.2   160      1.5   938.8    0.00       0    93.9
 243    2:20   84.7    26    1.0   176      3.3   938.9    0.00       0    93.8
 243    2:30   84.8    27    2.8   170      6.6   939.1    0.00       0    93.7

Return to Las Vegas, Nevada graphs page.


Western Regional Climate Center,wrcc@dri.edu